x

South Michigan - 43nm East Southeast Of Milwaukee, Wi (45007) Wave Buoy

5:50am - Mon 20th Oct 2014 All times are CDT. -5 hours from GMT.

  • Sig Wave height 4.3ft
  • Swell Direction
  • Peak Period 6s
  • Average Period 5s
  • Wind
    16mph, 20mph gusts
  • Sea Temp 55°f
  • Air Temp 54°f
  • Sea Pressure 1008.3mb
  • South Michigan - 43nm East Southeast Of Milwaukee, Wi
  • South Michigan - 43nm East Southeast Of Milwaukee, Wi

More Historic Weather Station data

Upgrade to MSW Pro to gain access to the past 30 days of data for over 8000 Wavebouys and Weather Stations around the globe.

Join Pro

Comparision Forecast

View Surf forecast
   
Mon 10/20 5:50am 4.5ft 6s 5s 16 20 mph 1008.3mb 55f 54f
4:50am 4.5ft 6s 5s 18 22 mph 1008.6mb 55f 55f
3:50am 4.5ft 6s 5s 20 25 mph 1008.9mb 55f 55f
2:50am 4.5ft 6s 5s 22 29 mph 1009.1mb 55f 55f
1:50am 4.5ft 6s 5s 25 29 mph 1009.7mb 55f 56f
12:50am 4.5ft 6s 5s 22 27 mph 1010.8mb 55f 55f
Sun 10/19 11:50pm 4.5ft 6s  -  22 27 mph 1011.4mb 55f 55f
9:50pm 5ft 6s 5s 25 27 mph 1012.7mb 55f 55f
8:50pm 4.5ft 5s 4s 25 31 mph 1012.5mb 55f 54f
7:50pm 4.5ft 5s 4s 25 29 mph 1013.5mb 55f 54f
6:50pm 4.5ft 5s 4s 25 29 mph 1014.2mb 55f 54f
5:50pm 4.5ft 5s 4s 25 29 mph 1014.5mb 55f 54f
4:50pm 3.5ft 5s 4s 22 27 mph 1015.9mb 55f 53f
3:50pm 3.5ft 5s 4s 20 25 mph 1016.9mb 55f 52f
2:50pm 3.5ft 5s 4s 20 25 mph 1017.7mb 55f 51f
1:50pm 3ft 5s 4s 18 22 mph 1019.1mb 55f 50f
12:50pm 2.5ft 4s 4s 18 22 mph 1020.3mb 55f 49f
11:50am 2.5ft 4s 4s 18 22 mph 1021.2mb 55f 49f
10:50am 2.5ft 4s 4s 16 20 mph 1021.8mb 55f 49f
9:50am 2ft 6s 4s 16 18 mph 1022.5mb 55f 48f
8:50am 2ft 6s 4s 11 13 mph 1022.5mb 55f 48f
7:50am 2ft 6s 4s 11 13 mph 1022.5mb 55f 48f
6:50am 2.5ft 6s 5s 9 11 mph 1022.3mb 55f 48f
5:50am 2.5ft 7s 5s 9 11 mph 1021.9mb 55f 48f
4:50am 2.5ft 6s 5s 4 9 mph 1022mb 55f 48f
3:50am 3.5ft 6s 5s 7 9 mph 1021.9mb 55f 48f
2:50am 3ft 7s 5s 2 4 mph 1022.3mb 55f 48f
1:50am 3.5ft 7s 5s 4 7 mph 1022.4mb 55f 47f
12:50am 4.5ft 7s 5s 9 13 mph 1022.3mb 55f 47f
Sat 10/18 11:50pm 4.5ft 8s 5s 9 13 mph 1022.3mb 55f 47f
10:50pm 4.5ft 7s 5s 11 16 mph 1022.4mb 55f 47f
9:50pm 5ft 8s 5s 13 18 mph 1022.2mb 55f 47f
8:50pm 5ft 8s 5s 16 22 mph 1022mb 55f 47f
7:50pm 6ft 8s 5s 18 22 mph 1021.9mb 55f 47f
6:50pm 6ft 8s 5s 20 25 mph 1021.7mb 55f 47f
5:50pm 6.5ft 7s 5s 20 27 mph 1021.2mb 55f 46f
4:50pm 7.5ft 7s 6s 22 29 mph 1020.7mb 55f 46f
3:50pm 7.5ft 8s 5s 25 29 mph 1020.1mb 55f 46f
2:50pm 8ft 8s 6s 25 31 mph 1019.3mb 55f 47f
1:50pm 8ft 8s 6s 22 29 mph 1018.7mb 55f 47f
12:50pm 9ft 8s 6s 27 34 mph 1018.4mb 55f 47f
11:50am 9ft 7s 6s 27 29 mph 1018mb 55f 47f
10:50am 9.5ft 9s 6s 27 31 mph 1017.2mb 55f 47f
9:50am 9.5ft 8s 6s 29 34 mph 1016.6mb 55f 47f
8:50am 9ft 8s 6s 27 31 mph 1015.8mb 55f 48f
7:50am 9.5ft 9s 6s 25 29 mph 1014.7mb 55f 48f
6:50am 8ft 8s 6s 25 31 mph 1014mb 55f 49f
5:50am 8ft 8s 6s 25 31 mph 1013mb 56f 49f
4:50am 8ft 8s 6s 27 31 mph 1012.2mb 56f 49f
3:50am 8ft 8s 6s 29 34 mph 1011.5mb 56f 50f
2:50am 8ft 7s 6s 27 31 mph 1011.1mb 56f 51f
1:50am 8ft 8s 5s 29 34 mph 1010.6mb 56f 51f
12:50am 7.5ft 7s 5s 29 36 mph 1010.2mb 56f 51f
Fri 10/17 11:50pm 8ft 7s 5s 29 34 mph 1010.1mb 56f 50f
10:50pm 7.5ft 6s 5s 29 34 mph 1009.6mb 56f 51f
9:50pm 6.5ft 6s 5s 29 34 mph 1008.9mb 56f 51f
8:50pm 6ft 5s 5s 27 34 mph 1007.8mb 56f 51f
7:50pm 5ft 6s 4s 29 36 mph 1007.1mb 57f 50f
6:50pm 5ft 6s 5s 25 29 mph 1005.5mb 57f 55f
5:50pm 5ft 6s 5s 27 34 mph 1004.6mb 57f 55f
4:50pm 4.5ft 5s 4s 29 36 mph 1003.6mb 57f 56f
3:50pm 3.5ft 5s 4s 22 29 mph 1002.9mb 57f 58f
2:50pm 4ft 5s 4s 20 25 mph 1002.2mb 57f 58f
1:50pm 3.5ft 5s 4s 20 25 mph 1001.7mb 57f 58f
12:50pm 3.5ft 5s 4s 20 25 mph 1001.2mb 57f 58f
11:50am 3.5ft 5s 4s 22 25 mph 1001.1mb 57f 57f
10:50am 4.5ft 5s 4s 20 25 mph 1000.7mb 57f 56f
9:50am 3ft 4s 4s 20 25 mph 1000.4mb 57f 56f
8:50am 3ft 6s 4s 18 22 mph 1000.2mb 57f 56f
7:50am 3.5ft 6s 4s 16 18 mph 999.8mb 57f 57f
6:50am 3.5ft 6s 4s 16 20 mph 999.7mb 57f 56f
5:50am 4ft 6s 4s 16 20 mph 999.6mb 57f 56f
4:50am 4.5ft 6s 5s 20 25 mph 999.7mb 57f 57f
3:50am  -   -   -  22 25 mph 1000mb 57f 56f
2:50am 4.5ft 5s 4s 22 27 mph 1000.4mb 57f 56f
1:50am 3.5ft 5s 4s 22 29 mph 1001.5mb 57f 56f
12:50am 2.5ft 4s 4s 22 27 mph 1002.7mb 57f 57f
Thu 10/16 11:50pm 2.5ft 4s 3s 20 25 mph 1004.1mb 57f 56f
10:50pm 2.5ft 3s 3s 18 22 mph 1004.9mb 57f 56f
9:50pm 1.6ft 3s 3s 18 20 mph 1005.3mb 57f 56f
8:50pm 1.6ft 3s 3s 16 18 mph 1005.9mb 57f 56f
7:50pm 1.3ft 3s 3s 13 16 mph 1006mb 57f 56f
6:50pm 1.6ft 3s 3s 13
mph
1006.3mb 57f 56f
5:50pm 1.6ft 3s 3s 16 18 mph 1006.5mb 57f 55f
4:50pm 1.6ft 3s 3s 13 16 mph 1006.6mb 57f 54f
3:50pm 1.6ft 5s 3s 13 16 mph 1007.4mb 57f 54f
2:50pm 1.6ft 5s 4s 13 16 mph 1007.8mb 57f 54f
1:50pm 1.6ft 5s 4s 11 13 mph 1008.5mb 57f 53f
12:50pm 1.6ft 5s 4s 9 11 mph 1008.9mb 57f 54f